Weather

DAILY 7 DAY TOTAL
onrain

Note: Some stations are located near irrigated fields and may also report irrigation

Alliston Mount Forest Blyth Guelph Grand Bend Strathroy Woodstock Belmont Simcoe Leamington Chatham West Lorne






Chatham WIN - Historical Weather Data
Date Max Temp (°C) Min Temp (°C) Avg Temp (°C) Rain (mm) 7Day Rain(mm) Total Rain(mm) Avg RH (%)
9/29/2022 16.4 6.3 11.6 0.0 14.4 313.2 87.4
9/28/2022 14.3 9.1 11.5 0.4 14.4 313.2 95.7
9/27/2022 15.4 11.6 12.8 0.0 17.2 312.8 85.6
9/26/2022 16.8 11.2 13.6 1.8 17.2 312.8 91.0
9/25/2022 18.9 13.5 15.7 12.2 17.8 311.0 92.1
9/24/2022 17.7 8.9 14.1 0.0 5.6 298.8 84.2
9/23/2022 17.1 6.2 11.4 0.0 5.6 298.8 75.5
9/22/2022 20.0 10.2 14.5 0.0 5.6 298.8 68.0
9/21/2022 28.9 17.5 23.0 3.2 5.6 298.8 87.1
9/20/2022 26.5 13.0 20.4 0.0 2.4 295.6 76.3
9/19/2022 27.1 14.9 22.1 2.4 10.8 295.6 82.2
9/18/2022 28.6 19.6 23.7 0.0 9.2 293.2 77.5
9/17/2022 27.5 15.3 21.5 0.0 9.2 293.2 85.7
9/16/2022 27.5 12.1 19.4 0.0 9.2 293.2 86.4
9/15/2022 21.4 11.6 15.9 0.0 9.2 293.2 86.3
9/14/2022 25.4 13.7 18.8 0.0 9.2 293.2 86.7
9/13/2022 22.2 12.6 16.8 8.4 9.2 293.2 86.9
9/12/2022 21.4 12.5 18.6 0.8 0.8 284.8 86.8
9/11/2022 26.0 19.0 21.7 0.0 0.0 284.0 91.0
9/10/2022 28.5 17.3 22.6 0.0 3.4 284.0 86.3
9/9/2022 27.6 11.5 19.5 0.0 3.4 284.0 83.4
9/8/2022 26.2 11.2 18.1 0.0 3.4 284.0 81.9
9/7/2022 25.4 12.4 18.4 0.0 3.4 284.0 82.1
9/6/2022 25.4 14.5 20.0 0.0 3.4 284.0 83.3
9/5/2022 23.5 17.5 19.8 0.0 4.4 284.0 97.2
9/4/2022 22.7 19.2 20.4 3.4 5.6 284.0 99.9
9/3/2022 29.5 18.9 24.0 0.0 2.2 280.6 86.2
9/2/2022 27.9 16.2 21.7 0.0 2.2 280.6 82.7
9/1/2022 27.2 13.0 20.9 0.0 4.6 280.6 77.1
8/31/2022 27.1 15.0 21.8 0.0 10.8 280.6 74.8
8/30/2022 26.6 19.3 22.5 1.0 10.8 280.6 85.3
8/29/2022 29.6 20.3 24.7 1.2 9.8 279.6 93.3
8/28/2022 28.2 14.0 21.8 0.0 9.0 278.4 87.5
8/27/2022 24.9 12.2 18.5 0.0 57.2 278.4 84.8
8/26/2022 24.4 15.8 20.7 2.4 57.6 278.4 94.0
8/25/2022 28.8 17.1 22.8 6.2 55.2 276.0 87.0
8/24/2022 29.1 15.4 22.0 0.0 49.0 269.8 82.8
8/23/2022 27.2 16.0 21.8 0.0 86.0 269.8 80.2
8/22/2022 26.3 17.5 21.3 0.4 86.0 269.8 93.4
8/21/2022 24.8 18.2 20.8 48.2 85.6 269.4 97.5
8/20/2022 29.3 16.8 22.4 0.4 37.4 221.2 88.0
8/19/2022 28.4 16.6 22.4 0.0 37.0 220.8 82.3
8/18/2022 27.8 13.1 20.0 0.0 37.0 220.8 84.5
8/17/2022 27.3 14.3 19.3 37.0 37.0 220.8 87.6
8/16/2022 26.2 13.7 20.2 0.0 0.0 183.8 80.8
8/15/2022 26.5 15.6 20.9 0.0 0.0 183.8 79.8
8/14/2022 24.5 17.3 20.5 0.0 16.4 183.8 84.3
8/13/2022 24.3 11.2 18.3 0.0 16.4 183.8 81.3
8/12/2022 25.5 10.5 18.2 0.0 16.4 183.8 72.5
8/11/2022 24.9 12.3 19.7 0.0 21.2 183.8 79.9
8/10/2022 27.2 13.6 20.5 0.0 22.2 183.8 82.0
8/9/2022 24.3 15.9 20.2 0.0 34.6 183.8 88.0
8/8/2022 30.4 19.1 24.7 16.4 34.6 183.8 98.6
8/7/2022 32.0 23.2 26.9 0.0 18.2 167.4 90.7
8/6/2022 30.3 20.9 25.5 0.0 18.2 167.4 93.2
8/5/2022 30.2 22.0 24.9 4.8 18.2 167.4 95.4
8/4/2022 27.4 21.1 24.3 1.0 13.4 162.6 96.7
8/3/2022 32.2 16.2 23.7 12.4 12.6 161.6 89.9
8/2/2022 26.8 16.9 22.3 0.0 3.2 149.2 79.1
8/1/2022 29.4 18.2 24.3 0.0 3.2 149.2 86.0
7/31/2022 28.6 15.0 22.2 0.0 3.2 149.2 80.4
7/30/2022 27.6 14.4 21.0 0.0 4.2 149.2 79.1
7/29/2022 27.7 13.7 22.2 0.0 4.2 149.2 66.8
7/28/2022 28.7 20.8 24.8 0.2 7.0 149.2 74.2
7/27/2022 27.0 16.1 21.6 3.0 6.8 149.0 96.1
7/26/2022 27.5 14.4 21.1 0.0 3.8 146.0 74.9
7/25/2022 25.4 16.6 22.2 0.0 3.8 146.0 71.2
7/24/2022 30.2 21.7 25.6 1.0 9.8 146.0 87.7
7/23/2022 29.4 18.6 24.3 0.0 22.6 145.0 86.8
7/22/2022 31.9 19.8 25.8 2.8 24.2 145.0 74.7
7/21/2022 32.0 21.1 26.4 0.0 21.4 142.2 70.6
7/20/2022 30.9 22.4 26.4 0.0 21.4 142.2 84.4
7/19/2022 32.7 19.6 26.3 0.0 22.4 142.2 78.3
7/18/2022 29.9 20.3 24.0 6.0 22.4 142.2 85.5
7/17/2022 24.9 18.3 21.4 13.8 16.4 136.2 98.6
7/16/2022 26.6 17.7 21.9 1.6 2.6 122.4 85.8
7/15/2022 27.7 12.7 20.9 0.0 1.0 120.8 72.4
7/14/2022 27.0 12.2 19.8 0.0 1.0 120.8 77.8
7/13/2022 23.4 14.2 19.3 1.0 1.0 120.8 92.3
7/12/2022 28.1 18.8 24.6 0.0 0.4 119.8 71.3
7/11/2022 30.7 12.6 23.3 0.0 9.6 119.8 71.5
7/10/2022 27.4 10.8 19.6 0.0 9.6 119.8 72.9
7/9/2022 27.3 13.8 20.2 0.0 9.6 119.8 66.0
7/8/2022 29.1 17.2 22.7 0.0 9.6 119.8 81.5
7/7/2022 28.6 14.8 21.7 0.0 10.6 119.8 83.0
7/6/2022 25.5 17.4 21.3 0.4 10.6 119.8 92.9
7/5/2022 30.5 20.6 25.3 9.2 10.6 119.4 83.0
7/4/2022 31.8 16.3 24.6 0.0 1.4 110.2 68.9
7/3/2022 28.0 16.6 21.5 0.0 1.4 110.2 57.9
7/2/2022 28.5 14.9 22.5 0.0 1.4 110.2 68.8
7/1/2022 32.1 21.3 25.0 1.0 1.4 110.2 72.8
6/30/2022 31.6 16.9 25.2 0.0 0.4 109.2 66.3
6/29/2022 26.6 15.7 21.0 0.4 0.4 109.2 74.5
6/28/2022 25.3 8.6 18.1 0.0 0.0 108.8 68.9
6/27/2022 23.1 13.6 20.0 0.0 0.0 108.8 53.2
6/26/2022 30.1 19.8 24.7 0.0 2.0 108.8 74.5
6/25/2022 30.0 16.9 23.9 0.0 2.0 108.8 62.8
6/24/2022 30.8 12.1 22.0 0.0 2.0 108.8 59.9
6/23/2022 25.9 12.9 20.1 0.0 2.0 108.8 63.9
6/22/2022 31.6 18.9 27.8 0.0 2.0 108.8 58.9
6/21/2022 34.8 18.9 27.1 0.0 2.0 108.8 64.8
6/20/2022 25.2 15.6 20.0 2.0 2.4 108.8 80.9
6/19/2022 24.0 8.9 17.6 0.0 0.4 106.8 56.3
6/18/2022 20.0 10.9 15.5 0.0 0.4 106.8 53.0
6/17/2022 27.8 15.9 24.1 0.0 0.6 106.8 54.3
6/16/2022 32.6 25.3 28.6 0.0 0.8 106.8 66.6
6/15/2022 35.2 20.8 28.2 0.0 12.4 106.8 72.4
6/14/2022 26.3 16.6 21.8 0.4 14.4 106.8 71.0
6/13/2022 26.3 13.6 20.2 0.0 26.0 106.4 71.9
6/12/2022 27.6 17.3 21.4 0.0 44.4 106.4 82.4
6/11/2022 25.2 15.2 20.2 0.2 44.4 106.4 77.7
6/10/2022 23.7 12.4 18.3 0.2 44.2 106.2 80.0
6/9/2022 22.6 12.4 16.6 11.6 44.0 106.0 86.1
6/8/2022 20.9 11.5 16.5 2.0 32.8 94.4 88.6
6/7/2022 20.3 14.9 17.9 12.0 40.6 92.4 95.9
6/6/2022 25.9 14.9 20.1 18.4 28.6 80.4 79.1
6/5/2022 23.2 14.1 18.1 0.0 10.2 62.0 61.4
6/4/2022 20.9 7.9 15.7 0.0 10.2 62.0 60.4
6/3/2022 26.1 10.9 19.3 0.0 10.2 62.0 61.4
6/2/2022 22.2 11.9 15.7 0.4 12.4 62.0 76.7
6/1/2022 29.5 13.8 21.9 9.8 18.8 61.6 82.9
5/31/2022 32.0 21.0 26.7 0.0 9.4 51.8 65.7
5/30/2022 30.7 16.9 24.3 0.0 9.4 51.8 71.5
5/29/2022 25.5 13.7 19.8 0.0 9.6 51.8 81.7
5/28/2022 22.4 11.9 16.7 0.0 9.8 51.8 79.8
5/27/2022 24.2 13.8 18.4 2.2 16.4 51.8 91.7
5/26/2022 24.3 17.0 20.0 6.8 15.4 49.6 93.3
5/25/2022 19.4 12.4 16.3 0.4 8.6 42.8 86.5
5/24/2022 21.6 4.8 13.7 0.0 15.6 42.4 69.7
5/23/2022 15.7 8.7 12.3 0.2 15.6 42.4 74.3
5/22/2022 17.8 8.5 13.5 0.2 22.2 42.2 97.0
5/21/2022 27.0 17.5 21.9 6.6 22.2 42.0 86.9
5/20/2022 27.4 17.3 21.9 1.2 15.6 35.4 87.1
5/19/2022 23.6 11.6 17.3 0.0 14.4 34.2 88.6
5/18/2022 12.7 7.1 10.6 7.4 14.4 34.2 95.8
5/17/2022 18.1 6.4 12.9 0.0 8.0 26.8 71.9
5/16/2022 21.9 11.4 15.5 6.8 8.0 26.8 85.3
5/15/2022 30.0 12.9 20.9 0.2 1.2 20.0 73.6
5/14/2022 27.1 15.1 20.6 0.0 1.0 19.8 82.3
5/13/2022 27.1 13.6 20.5 0.0 1.0 19.8 70.5
5/12/2022 28.3 9.3 19.2 0.0 2.4 19.8 49.4
5/11/2022 26.8 14.4 19.3 1.0 2.4 19.8 45.2
5/10/2022 25.3 8.5 16.7 0.0 1.6 18.8 49.5
5/9/2022 20.7 5.8 14.3 0.0 13.2 18.8 55.8
5/8/2022 17.1 2.8 10.9 0.0 13.4 18.8 59.7
5/7/2022 19.0 4.7 13.1 0.0 18.8 18.8 48.3
5/6/2022 16.4 9.8 12.4 1.4 18.8 18.8 72.6
5/5/2022 15.0 1.4 9.0 0.0 17.4 17.4 87.2
5/4/2022 11.8 3.5 8.9 0.2 17.4 17.4 95.8
5/3/2022 11.8 7.6 9.9 11.6 17.2 17.2 98.6
5/2/2022 14.2 10.0 11.4 0.2 5.6 5.6 86.7
5/1/2022 21.6 7.5 13.4 5.4 11.6 5.4 77.9